Krymsk — A8CE4 — position and weather

sailwx.info

Track history (hours):
 
Tides and Currents Weather Stations Pressure Air Temp Water Temp Dewpoint Dewpoint Depression Visibility Wind Speed Wind Dir Waves Ship Positions

Krymsk

Last reported at 2016-Feb-13 07:33 UTC. Time now 2016-Feb-13 19:25 UTC.
Position N 40°57' E 028°59'.

Length 250 m; draft 8.5 m.

Type: Tanker. MMSI: 636011914.

Date/timePositionNaut miles runAvg speedWind from/ knotsBaromVisibWave heightAir tempDewpointWater temp
2016-Feb-13 07:33N 40°57' E 028°59'4 3.8
2016-Feb-13 06:33N 40°56' E 028°54'1 0.2
2016-Feb-13 00:18N 40°57' E 028°53'3 1.5
2016-Feb-12 22:32N 40°54' E 028°54'  
2016-Feb-07 22:31N 37°36' E 023°51'1010.7
2016-Feb-07 21:33N 37°42' E 023°41'1111.4
2016-Feb-07 20:33N 37°49' E 023°30'9 9.5
2016-Feb-07 19:34N 37°57' E 023°22'1 0.7
2016-Feb-07 18:33N 37°58' E 023°22'1 0.8
2016-Feb-07 17:31N 37°58' E 023°23'0 0.0
2016-Feb-07 16:31N 37°58' E 023°23'0 0.0
2016-Feb-07 15:31N 37°58' E 023°23'0 0.0
2016-Feb-07 14:28N 37°58' E 023°23'0 0.0
2016-Feb-07 13:28N 37°58' E 023°23'0 0.0
2016-Feb-07 12:31N 37°58' E 023°23'0 0.0
2016-Feb-07 11:31N 37°58' E 023°23'0 0.0
2016-Feb-07 10:28N 37°58' E 023°23'0 0.0
2016-Feb-07 09:31N 37°58' E 023°23'0 0.0
2016-Feb-07 08:25N 37°58' E 023°23'0 0.0
2016-Feb-07 07:31N 37°58' E 023°23'0 0.0
2016-Feb-07 06:28N 37°58' E 023°23'0 0.0
2016-Feb-07 05:31N 37°58' E 023°23'0 0.0
2016-Feb-07 04:28N 37°58' E 023°23'0 0.0
2016-Feb-07 02:22N 37°58' E 023°23'0 0.0
2016-Feb-07 00:34N 37°58' E 023°23'0 0.0
2016-Feb-06 23:30N 37°58' E 023°23'0 0.0
2016-Feb-06 22:30N 37°58' E 023°23'0 0.0
2016-Feb-06 21:33N 37°58' E 023°23'0 0.0
2016-Feb-06 20:33N 37°58' E 023°23'0 0.0
2016-Feb-06 19:30N 37°58' E 023°23'0 0.0
2016-Feb-06 18:33N 37°58' E 023°23'0 0.0
2016-Feb-06 17:33N 37°58' E 023°23'0 0.0
2016-Feb-06 16:33N 37°58' E 023°23'0 0.0
2016-Feb-06 15:33N 37°58' E 023°23'0 0.0
2016-Feb-06 14:33N 37°58' E 023°23'0 0.0
2016-Feb-06 13:33N 37°58' E 023°23'0 0.0
2016-Feb-06 12:33N 37°58' E 023°23'0 0.0
2016-Feb-06 11:33N 37°58' E 023°23'0 0.0
2016-Feb-06 10:30N 37°58' E 023°23'0 0.0
2016-Feb-06 09:33N 37°58' E 023°23'0 0.0
2016-Feb-06 08:33N 37°58' E 023°23'0 0.0
2016-Feb-06 07:33N 37°58' E 023°23'0 0.4
2016-Feb-06 06:33N 37°58' E 023°23'3 3.0
2016-Feb-06 05:34N 37°56' E 023°20'0 0.4
2016-Feb-06 04:33N 37°57' E 023°20'0 0.2
2016-Feb-06 03:33N 37°57' E 023°20'2 1.5
2016-Feb-06 02:33N 37°56' E 023°21'1 0.6
2016-Feb-06 01:13N 37°55' E 023°21'0 0.6
2016-Feb-06 00:33N 37°55' E 023°21'1 0.6
2016-Feb-05 23:33N 37°56' E 023°21'0 0.5
2016-Feb-05 22:33N 37°56' E 023°21'3 3.5
2016-Feb-05 21:33N 37°53' E 023°23'6 6.1
2016-Feb-05 20:33N 37°52' E 023°31'0 0.1
2016-Feb-05 19:34N 37°52' E 023°31'0 0.0
2016-Feb-05 18:33N 37°52' E 023°31'0 0.0
2016-Feb-05 17:30N 37°52' E 023°31'0 0.0
2016-Feb-05 16:33N 37°52' E 023°31'0 0.0
2016-Feb-05 15:33N 37°52' E 023°30'0 0.0
2016-Feb-05 14:33N 37°52' E 023°31'0 0.0
2016-Feb-05 13:33N 37°52' E 023°31'0 0.0
2016-Feb-05 12:33N 37°52' E 023°31'0 0.0
2016-Feb-05 11:33N 37°52' E 023°31'0 0.0
2016-Feb-05 10:33N 37°52' E 023°30'0 0.0
2016-Feb-05 09:33N 37°52' E 023°31'0 0.0
2016-Feb-05 08:33N 37°52' E 023°31'0 0.0
2016-Feb-05 07:33N 37°52' E 023°30'0 0.0
2016-Feb-05 06:33N 37°52' E 023°30'0 0.1
2016-Feb-05 05:33N 37°52' E 023°31'0 0.1
2016-Feb-05 04:33N 37°52' E 023°30'0 0.0
2016-Feb-05 03:33N 37°52' E 023°30'0 0.0
2016-Feb-05 02:33N 37°52' E 023°30'0 0.1
2016-Feb-05 01:33N 37°52' E 023°30'0 0.1
2016-Feb-05 00:33N 37°52' E 023°31'0 0.0
2016-Feb-04 23:33N 37°52' E 023°31'0 0.2
2016-Feb-04 22:33N 37°52' E 023°30'0 0.1
2016-Feb-04 21:33N 37°52' E 023°30'0 0.0
2016-Feb-04 20:33N 37°52' E 023°30'0 0.0
2016-Feb-04 19:33N 37°52' E 023°30'0 0.0
2016-Feb-04 18:33N 37°52' E 023°30'0 0.1
2016-Feb-04 17:33N 37°52' E 023°30'0 0.0
2016-Feb-04 16:33N 37°52' E 023°30'0 0.0
2016-Feb-04 15:33N 37°52' E 023°30'0 0.1
2016-Feb-04 14:33N 37°52' E 023°30'0 0.0
2016-Feb-04 13:33N 37°52' E 023°30'0 0.0
2016-Feb-04 12:33N 37°52' E 023°30'0 0.0
2016-Feb-04 11:33N 37°52' E 023°30'0 0.0
2016-Feb-04 10:33N 37°52' E 023°30'0 0.0
2016-Feb-04 09:33N 37°52' E 023°30'0 0.1
2016-Feb-04 08:33N 37°52' E 023°30'0 0.0
2016-Feb-04 07:33N 37°52' E 023°30'0 0.0
2016-Feb-04 06:33N 37°52' E 023°30'0 0.0
2016-Feb-04 05:33N 37°52' E 023°30'0 0.1
2016-Feb-04 04:32N 37°52' E 023°30'0 0.1
2016-Feb-04 03:20N 37°52' E 023°31'0 0.0
2016-Feb-04 02:32N 37°52' E 023°31'0 0.0
2016-Feb-04 01:32N 37°52' E 023°31'0 0.0
2016-Feb-04 00:32N 37°52' E 023°31'0 0.0
2016-Feb-03 23:32N 37°52' E 023°31'0 0.0
2016-Feb-03 22:32N 37°52' E 023°31'0 0.1
2016-Feb-03 21:32N 37°52' E 023°31'0 0.2
2016-Feb-03 20:32N 37°52' E 023°30'0 0.0
2016-Feb-03 19:32N 37°52' E 023°30'0 0.0
2016-Feb-03 18:32N 37°52' E 023°30'0 0.0
2016-Feb-03 17:32N 37°52' E 023°30'0 0.1
2016-Feb-03 16:32N 37°52' E 023°30'0 0.1
2016-Feb-03 15:32N 37°52' E 023°30'0 0.0
2016-Feb-03 14:32N 37°52' E 023°30'0 0.1
2016-Feb-03 13:32N 37°52' E 023°30'0 0.0
2016-Feb-03 12:32N 37°52' E 023°30'0 0.0
2016-Feb-03 11:29N 37°52' E 023°30'0 0.0
2016-Feb-03 10:32N 37°52' E 023°30'0 0.0
2016-Feb-03 09:32N 37°52' E 023°30'0 0.2
2016-Feb-03 08:32N 37°52' E 023°31'  
Track history (hours):
 
Tides and Currents Weather Stations Pressure Air Temp Water Temp Dewpoint Dewpoint Depression Visibility Wind Speed Wind Dir Waves Ship Positions

Krymsk

Last reported at 2016-Feb-13 07:33 UTC. Time now 2016-Feb-13 19:25 UTC.
Position N 40°57' E 028°59'.

Length 250 m; draft 8.5 m.

Type: Tanker. MMSI: 636011914.

Date/timePositionNaut miles runAvg speedWind from/ knotsBaromVisibWave heightAir tempDewpointWater temp
2016-Feb-13 07:33N 40°57' E 028°59'4 3.8
2016-Feb-13 06:33N 40°56' E 028°54'1 0.2
2016-Feb-13 00:18N 40°57' E 028°53'3 1.5
2016-Feb-12 22:32N 40°54' E 028°54'  
2016-Feb-07 22:31N 37°36' E 023°51'1010.7
2016-Feb-07 21:33N 37°42' E 023°41'1111.4
2016-Feb-07 20:33N 37°49' E 023°30'9 9.5
2016-Feb-07 19:34N 37°57' E 023°22'1 0.7
2016-Feb-07 18:33N 37°58' E 023°22'1 0.8
2016-Feb-07 17:31N 37°58' E 023°23'0 0.0
2016-Feb-07 16:31N 37°58' E 023°23'0 0.0
2016-Feb-07 15:31N 37°58' E 023°23'0 0.0
2016-Feb-07 14:28N 37°58' E 023°23'0 0.0
2016-Feb-07 13:28N 37°58' E 023°23'0 0.0
2016-Feb-07 12:31N 37°58' E 023°23'0 0.0
2016-Feb-07 11:31N 37°58' E 023°23'0 0.0
2016-Feb-07 10:28N 37°58' E 023°23'0 0.0
2016-Feb-07 09:31N 37°58' E 023°23'0 0.0
2016-Feb-07 08:25N 37°58' E 023°23'0 0.0
2016-Feb-07 07:31N 37°58' E 023°23'0 0.0
2016-Feb-07 06:28N 37°58' E 023°23'0 0.0
2016-Feb-07 05:31N 37°58' E 023°23'0 0.0
2016-Feb-07 04:28N 37°58' E 023°23'0 0.0
2016-Feb-07 02:22N 37°58' E 023°23'0 0.0
2016-Feb-07 00:34N 37°58' E 023°23'0 0.0
2016-Feb-06 23:30N 37°58' E 023°23'0 0.0
2016-Feb-06 22:30N 37°58' E 023°23'0 0.0
2016-Feb-06 21:33N 37°58' E 023°23'0 0.0
2016-Feb-06 20:33N 37°58' E 023°23'0 0.0
2016-Feb-06 19:30N 37°58' E 023°23'0 0.0
2016-Feb-06 18:33N 37°58' E 023°23'0 0.0
2016-Feb-06 17:33N 37°58' E 023°23'0 0.0
2016-Feb-06 16:33N 37°58' E 023°23'0 0.0
2016-Feb-06 15:33N 37°58' E 023°23'0 0.0
2016-Feb-06 14:33N 37°58' E 023°23'0 0.0
2016-Feb-06 13:33N 37°58' E 023°23'0 0.0
2016-Feb-06 12:33N 37°58' E 023°23'0 0.0
2016-Feb-06 11:33N 37°58' E 023°23'0 0.0
2016-Feb-06 10:30N 37°58' E 023°23'0 0.0
2016-Feb-06 09:33N 37°58' E 023°23'0 0.0
2016-Feb-06 08:33N 37°58' E 023°23'0 0.0
2016-Feb-06 07:33N 37°58' E 023°23'0 0.4
2016-Feb-06 06:33N 37°58' E 023°23'3 3.0
2016-Feb-06 05:34N 37°56' E 023°20'0 0.4
2016-Feb-06 04:33N 37°57' E 023°20'0 0.2
2016-Feb-06 03:33N 37°57' E 023°20'2 1.5
2016-Feb-06 02:33N 37°56' E 023°21'1 0.6
2016-Feb-06 01:13N 37°55' E 023°21'0 0.6
2016-Feb-06 00:33N 37°55' E 023°21'1 0.6
2016-Feb-05 23:33N 37°56' E 023°21'0 0.5
2016-Feb-05 22:33N 37°56' E 023°21'3 3.5
2016-Feb-05 21:33N 37°53' E 023°23'6 6.1
2016-Feb-05 20:33N 37°52' E 023°31'0 0.1
2016-Feb-05 19:34N 37°52' E 023°31'0 0.0
2016-Feb-05 18:33N 37°52' E 023°31'0 0.0
2016-Feb-05 17:30N 37°52' E 023°31'0 0.0
2016-Feb-05 16:33N 37°52' E 023°31'0 0.0
2016-Feb-05 15:33N 37°52' E 023°30'0 0.0
2016-Feb-05 14:33N 37°52' E 023°31'0 0.0
2016-Feb-05 13:33N 37°52' E 023°31'0 0.0
2016-Feb-05 12:33N 37°52' E 023°31'0 0.0
2016-Feb-05 11:33N 37°52' E 023°31'0 0.0
2016-Feb-05 10:33N 37°52' E 023°30'0 0.0
2016-Feb-05 09:33N 37°52' E 023°31'0 0.0
2016-Feb-05 08:33N 37°52' E 023°31'0 0.0
2016-Feb-05 07:33N 37°52' E 023°30'0 0.0
2016-Feb-05 06:33N 37°52' E 023°30'0 0.1
2016-Feb-05 05:33N 37°52' E 023°31'0 0.1
2016-Feb-05 04:33N 37°52' E 023°30'0 0.0
2016-Feb-05 03:33N 37°52' E 023°30'0 0.0
2016-Feb-05 02:33N 37°52' E 023°30'0 0.1
2016-Feb-05 01:33N 37°52' E 023°30'0 0.1
2016-Feb-05 00:33N 37°52' E 023°31'0 0.0
2016-Feb-04 23:33N 37°52' E 023°31'0 0.2
2016-Feb-04 22:33N 37°52' E 023°30'0 0.1
2016-Feb-04 21:33N 37°52' E 023°30'0 0.0
2016-Feb-04 20:33N 37°52' E 023°30'0 0.0
2016-Feb-04 19:33N 37°52' E 023°30'0 0.0
2016-Feb-04 18:33N 37°52' E 023°30'0 0.1
2016-Feb-04 17:33N 37°52' E 023°30'0 0.0
2016-Feb-04 16:33N 37°52' E 023°30'0 0.0
2016-Feb-04 15:33N 37°52' E 023°30'0 0.1
2016-Feb-04 14:33N 37°52' E 023°30'0 0.0
2016-Feb-04 13:33N 37°52' E 023°30'0 0.0
2016-Feb-04 12:33N 37°52' E 023°30'0 0.0
2016-Feb-04 11:33N 37°52' E 023°30'0 0.0
2016-Feb-04 10:33N 37°52' E 023°30'0 0.0
2016-Feb-04 09:33N 37°52' E 023°30'0 0.1
2016-Feb-04 08:33N 37°52' E 023°30'0 0.0
2016-Feb-04 07:33N 37°52' E 023°30'0 0.0
2016-Feb-04 06:33N 37°52' E 023°30'0 0.0
2016-Feb-04 05:33N 37°52' E 023°30'0 0.1
2016-Feb-04 04:32N 37°52' E 023°30'0 0.1
2016-Feb-04 03:20N 37°52' E 023°31'0 0.0
2016-Feb-04 02:32N 37°52' E 023°31'0 0.0
2016-Feb-04 01:32N 37°52' E 023°31'0 0.0
2016-Feb-04 00:32N 37°52' E 023°31'0 0.0
2016-Feb-03 23:32N 37°52' E 023°31'0 0.0
2016-Feb-03 22:32N 37°52' E 023°31'0 0.1
2016-Feb-03 21:32N 37°52' E 023°31'0 0.2
2016-Feb-03 20:32N 37°52' E 023°30'0 0.0
2016-Feb-03 19:32N 37°52' E 023°30'0 0.0
2016-Feb-03 18:32N 37°52' E 023°30'0 0.0
2016-Feb-03 17:32N 37°52' E 023°30'0 0.1
2016-Feb-03 16:32N 37°52' E 023°30'0 0.1
2016-Feb-03 15:32N 37°52' E 023°30'0 0.0
2016-Feb-03 14:32N 37°52' E 023°30'0 0.1
2016-Feb-03 13:32N 37°52' E 023°30'0 0.0
2016-Feb-03 12:32N 37°52' E 023°30'0 0.0
2016-Feb-03 11:29N 37°52' E 023°30'0 0.0
2016-Feb-03 10:32N 37°52' E 023°30'0 0.0
2016-Feb-03 09:32N 37°52' E 023°30'0 0.2
2016-Feb-03 08:32N 37°52' E 023°31'  

Dump ship's entire track history